Terminal Aerodrome Forecast
Issued by NWS Grand Forks, ND

Home | Current Version | Previous Version | Text Only | Print | Product List | Glossary On
Versions: 1 2 3 4 5 6 7 8 9 10 11 12 13 14 15 16 17 18
393
FTUS43 KFGF 041727
TAFFAR
TAF
KFAR 041727Z 0418/0518 24010KT P6SM OVC015
     FM042300 23009KT P6SM BKN020
     FM050100 22008KT P6SM BKN045
     FM050300 20006KT P6SM SCT100
     FM051300 14008KT P6SM BKN020=

USA.gov is the U.S. government's official web portal to all federal, state and local government web resources and services.